sensor_id;sensor_type;location;lat;lon;timestamp;pressure;altitude;pressure_sealevel;temperature;humidity
54872;BME280;43914;57.680;11.982;2023-02-20T00:01:54;99869.32;;;3.31;100.00
54872;BME280;43914;57.680;11.982;2023-02-20T00:04:20;99864.91;;;3.27;100.00
54872;BME280;43914;57.680;11.982;2023-02-20T00:06:45;99857.33;;;3.20;100.00
54872;BME280;43914;57.680;11.982;2023-02-20T00:09:11;99859.13;;;3.27;100.00
54872;BME280;43914;57.680;11.982;2023-02-20T00:11:37;99841.98;;;3.25;100.00
54872;BME280;43914;57.680;11.982;2023-02-20T00:14:02;99831.42;;;3.22;100.00
54872;BME280;43914;57.680;11.982;2023-02-20T00:16:28;99829.42;;;3.23;100.00
54872;BME280;43914;57.680;11.982;2023-02-20T00:18:53;99820.02;;;3.21;100.00
54872;BME280;43914;57.680;11.982;2023-02-20T00:21:19;99807.42;;;3.20;100.00
54872;BME280;43914;57.680;11.982;2023-02-20T00:23:44;99798.95;;;3.17;100.00
54872;BME280;43914;57.680;11.982;2023-02-20T00:26:11;99785.17;;;3.17;100.00
54872;BME280;43914;57.680;11.982;2023-02-20T00:28:41;99780.31;;;3.15;100.00
54872;BME280;43914;57.680;11.982;2023-02-20T00:31:10;99764.21;;;3.13;100.00
54872;BME280;43914;57.680;11.982;2023-02-20T00:33:36;99752.28;;;3.10;100.00
54872;BME280;43914;57.680;11.982;2023-02-20T00:36:03;99743.05;;;3.07;100.00
54872;BME280;43914;57.680;11.982;2023-02-20T00:38:29;99744.11;;;3.06;100.00
54872;BME280;43914;57.680;11.982;2023-02-20T00:40:54;99732.49;;;3.03;100.00
54872;BME280;43914;57.680;11.982;2023-02-20T00:43:20;99713.05;;;2.94;100.00
54872;BME280;43914;57.680;11.982;2023-02-20T00:45:45;99712.59;;;2.97;100.00
54872;BME280;43914;57.680;11.982;2023-02-20T00:48:11;99708.79;;;2.96;100.00
54872;BME280;43914;57.680;11.982;2023-02-20T00:50:37;99702.23;;;2.95;100.00
54872;BME280;43914;57.680;11.982;2023-02-20T00:53:02;99685.98;;;2.93;100.00
54872;BME280;43914;57.680;11.982;2023-02-20T00:55:28;99668.96;;;2.90;100.00
54872;BME280;43914;57.680;11.982;2023-02-20T00:57:53;99661.73;;;2.91;100.00
54872;BME280;43914;57.680;11.982;2023-02-20T01:00:27;99658.28;;;2.90;100.00
54872;BME280;43914;57.680;11.982;2023-02-20T01:02:54;99650.61;;;2.91;100.00
54872;BME280;43914;57.680;11.982;2023-02-20T01:05:20;99641.79;;;2.89;100.00
54872;BME280;43914;57.680;11.982;2023-02-20T01:07:45;99645.92;;;2.92;100.00
54872;BME280;43914;57.680;11.982;2023-02-20T01:10:12;99639.86;;;2.92;100.00
54872;BME280;43914;57.680;11.982;2023-02-20T01:12:38;99633.91;;;2.93;100.00
54872;BME280;43914;57.680;11.982;2023-02-20T01:15:05;99618.98;;;2.94;100.00
54872;BME280;43914;57.680;11.982;2023-02-20T01:17:31;99605.73;;;2.95;100.00
54872;BME280;43914;57.680;11.982;2023-02-20T01:19:56;99591.54;;;2.96;100.00
54872;BME280;43914;57.680;11.982;2023-02-20T01:22:22;99582.68;;;2.95;100.00
54872;BME280;43914;57.680;11.982;2023-02-20T01:24:48;99574.42;;;2.97;100.00
54872;BME280;43914;57.680;11.982;2023-02-20T01:27:13;99552.48;;;2.99;100.00
54872;BME280;43914;57.680;11.982;2023-02-20T01:29:39;99539.04;;;2.98;100.00
54872;BME280;43914;57.680;11.982;2023-02-20T01:32:04;99529.48;;;2.98;100.00
54872;BME280;43914;57.680;11.982;2023-02-20T01:34:30;99523.64;;;3.00;100.00
54872;BME280;43914;57.680;11.982;2023-02-20T01:36:55;99515.45;;;3.00;100.00
54872;BME280;43914;57.680;11.982;2023-02-20T01:39:23;99502.68;;;3.01;100.00
54872;BME280;43914;57.680;11.982;2023-02-20T01:41:56;99492.82;;;3.02;100.00
54872;BME280;43914;57.680;11.982;2023-02-20T01:44:27;99480.17;;;3.03;100.00
54872;BME280;43914;57.680;11.982;2023-02-20T01:46:55;99465.78;;;3.03;100.00
54872;BME280;43914;57.680;11.982;2023-02-20T01:49:38;99453.23;;;3.05;100.00
54872;BME280;43914;57.680;11.982;2023-02-20T01:52:07;99437.80;;;3.07;100.00
54872;BME280;43914;57.680;11.982;2023-02-20T01:54:35;99431.50;;;3.05;100.00
54872;BME280;43914;57.680;11.982;2023-02-20T01:57:04;99423.27;;;3.07;100.00
54872;BME280;43914;57.680;11.982;2023-02-20T01:59:35;99409.27;;;3.09;100.00
54872;BME280;43914;57.680;11.982;2023-02-20T02:02:04;99404.54;;;3.12;100.00
54872;BME280;43914;57.680;11.982;2023-02-20T02:04:30;99393.06;;;3.13;100.00
54872;BME280;43914;57.680;11.982;2023-02-20T02:06:59;99385.92;;;3.15;100.00
54872;BME280;43914;57.680;11.982;2023-02-20T02:09:33;99380.07;;;3.18;100.00
54872;BME280;43914;57.680;11.982;2023-02-20T02:12:02;99366.77;;;3.22;100.00
54872;BME280;43914;57.680;11.982;2023-02-20T02:14:28;99349.36;;;3.24;100.00
54872;BME280;43914;57.680;11.982;2023-02-20T02:28:19;99273.70;;;3.36;100.00
54872;BME280;43914;57.680;11.982;2023-02-20T02:34:02;99257.17;;;3.40;100.00
54872;BME280;43914;57.680;11.982;2023-02-20T02:42:50;99225.87;;;3.45;100.00
54872;BME280;43914;57.680;11.982;2023-02-20T02:45:40;99221.38;;;3.48;100.00
54872;BME280;43914;57.680;11.982;2023-02-20T02:48:15;99200.37;;;3.51;100.00
54872;BME280;43914;57.680;11.982;2023-02-20T02:50:45;99188.23;;;3.51;100.00
54872;BME280;43914;57.680;11.982;2023-02-20T02:53:13;99182.39;;;3.53;100.00
54872;BME280;43914;57.680;11.982;2023-02-20T02:55:40;99171.33;;;3.55;100.00
54872;BME280;43914;57.680;11.982;2023-02-20T02:58:06;99171.59;;;3.57;100.00
54872;BME280;43914;57.680;11.982;2023-02-20T03:03:31;99145.68;;;3.61;100.00
54872;BME280;43914;57.680;11.982;2023-02-20T03:06:10;99128.10;;;3.63;100.00
54872;BME280;43914;57.680;11.982;2023-02-20T03:13:39;99120.00;;;3.69;100.00
54872;BME280;43914;57.680;11.982;2023-02-20T03:16:34;99115.20;;;3.70;100.00
54872;BME280;43914;57.680;11.982;2023-02-20T03:19:04;99107.15;;;3.72;100.00
54872;BME280;43914;57.680;11.982;2023-02-20T03:21:33;99103.05;;;3.74;100.00
54872;BME280;43914;57.680;11.982;2023-02-20T03:24:02;99089.88;;;3.76;100.00
54872;BME280;43914;57.680;11.982;2023-02-20T03:26:32;99082.93;;;3.80;100.00
54872;BME280;43914;57.680;11.982;2023-02-20T03:29:06;99074.30;;;3.81;100.00
54872;BME280;43914;57.680;11.982;2023-02-20T03:31:41;99061.64;;;3.83;100.00
54872;BME280;43914;57.680;11.982;2023-02-20T03:34:29;99059.17;;;3.86;100.00
54872;BME280;43914;57.680;11.982;2023-02-20T03:37:18;99041.70;;;3.87;100.00
54872;BME280;43914;57.680;11.982;2023-02-20T03:40:08;99020.25;;;3.90;100.00
54872;BME280;43914;57.680;11.982;2023-02-20T03:42:57;99007.32;;;3.93;100.00
54872;BME280;43914;57.680;11.982;2023-02-20T03:45:43;99001.41;;;3.96;100.00
54872;BME280;43914;57.680;11.982;2023-02-20T03:48:18;99002.04;;;3.98;100.00
54872;BME280;43914;57.680;11.982;2023-02-20T03:50:45;98994.55;;;4.02;100.00
54872;BME280;43914;57.680;11.982;2023-02-20T03:53:30;98995.64;;;4.06;100.00
54872;BME280;43914;57.680;11.982;2023-02-20T03:55:57;98992.61;;;4.09;100.00
54872;BME280;43914;57.680;11.982;2023-02-20T03:58:26;98980.05;;;4.14;100.00
54872;BME280;43914;57.680;11.982;2023-02-20T04:00:55;98972.96;;;4.16;100.00
54872;BME280;43914;57.680;11.982;2023-02-20T04:03:26;98976.96;;;4.18;100.00
54872;BME280;43914;57.680;11.982;2023-02-20T04:05:55;98972.23;;;4.23;100.00
54872;BME280;43914;57.680;11.982;2023-02-20T04:08:38;98971.88;;;4.27;100.00
54872;BME280;43914;57.680;11.982;2023-02-20T04:11:39;98968.33;;;4.33;100.00
54872;BME280;43914;57.680;11.982;2023-02-20T04:14:07;98956.55;;;4.37;100.00
54872;BME280;43914;57.680;11.982;2023-02-20T04:16:39;98954.99;;;4.41;100.00
54872;BME280;43914;57.680;11.982;2023-02-20T04:19:08;98943.60;;;4.44;100.00
54872;BME280;43914;57.680;11.982;2023-02-20T04:21:51;98935.98;;;4.46;100.00
54872;BME280;43914;57.680;11.982;2023-02-20T04:24:28;98924.90;;;4.49;100.00
54872;BME280;43914;57.680;11.982;2023-02-20T04:26:55;98911.66;;;4.51;100.00
54872;BME280;43914;57.680;11.982;2023-02-20T04:29:20;98910.90;;;4.56;100.00
54872;BME280;43914;57.680;11.982;2023-02-20T04:31:46;98907.80;;;4.61;100.00
54872;BME280;43914;57.680;11.982;2023-02-20T04:34:11;98901.20;;;4.66;100.00
54872;BME280;43914;57.680;11.982;2023-02-20T04:36:37;98900.42;;;4.71;100.00
54872;BME280;43914;57.680;11.982;2023-02-20T04:39:03;98895.52;;;4.74;100.00
54872;BME280;43914;57.680;11.982;2023-02-20T04:41:29;98889.89;;;4.80;100.00
54872;BME280;43914;57.680;11.982;2023-02-20T04:43:56;98883.54;;;4.84;100.00
54872;BME280;43914;57.680;11.982;2023-02-20T04:46:40;98881.16;;;4.87;100.00
54872;BME280;43914;57.680;11.982;2023-02-20T04:49:05;98873.95;;;4.88;100.00
54872;BME280;43914;57.680;11.982;2023-02-20T04:51:31;98860.77;;;4.89;100.00
54872;BME280;43914;57.680;11.982;2023-02-20T04:53:56;98854.48;;;4.92;100.00
54872;BME280;43914;57.680;11.982;2023-02-20T04:56:22;98852.70;;;4.95;100.00
54872;BME280;43914;57.680;11.982;2023-02-20T04:58:48;98849.88;;;4.96;100.00
54872;BME280;43914;57.680;11.982;2023-02-20T05:01:14;98843.45;;;4.96;100.00
54872;BME280;43914;57.680;11.982;2023-02-20T05:03:41;98837.40;;;4.97;100.00
54872;BME280;43914;57.680;11.982;2023-02-20T05:06:07;98841.20;;;4.97;100.00
54872;BME280;43914;57.680;11.982;2023-02-20T05:08:32;98834.99;;;4.99;100.00
54872;BME280;43914;57.680;11.982;2023-02-20T05:10:58;98826.60;;;4.99;100.00
54872;BME280;43914;57.680;11.982;2023-02-20T05:13:23;98824.23;;;5.00;100.00
54872;BME280;43914;57.680;11.982;2023-02-20T05:15:49;98815.01;;;5.00;100.00
54872;BME280;43914;57.680;11.982;2023-02-20T05:18:24;98808.87;;;5.00;100.00
54872;BME280;43914;57.680;11.982;2023-02-20T05:20:50;98802.61;;;5.01;100.00
54872;BME280;43914;57.680;11.982;2023-02-20T05:23:34;98793.06;;;5.00;100.00
54872;BME280;43914;57.680;11.982;2023-02-20T05:25:59;98784.14;;;5.01;100.00
54872;BME280;43914;57.680;11.982;2023-02-20T05:28:25;98764.52;;;5.02;100.00
54872;BME280;43914;57.680;11.982;2023-02-20T05:30:51;98761.41;;;5.02;100.00
54872;BME280;43914;57.680;11.982;2023-02-20T05:33:17;98752.61;;;5.03;100.00
54872;BME280;43914;57.680;11.982;2023-02-20T05:35:43;98757.32;;;5.03;100.00
54872;BME280;43914;57.680;11.982;2023-02-20T05:38:08;98749.21;;;5.05;100.00
54872;BME280;43914;57.680;11.982;2023-02-20T05:40:33;98738.48;;;5.07;100.00
54872;BME280;43914;57.680;11.982;2023-02-20T05:42:59;98744.58;;;5.09;100.00
54872;BME280;43914;57.680;11.982;2023-02-20T05:45:24;98735.88;;;5.10;100.00
54872;BME280;43914;57.680;11.982;2023-02-20T05:47:50;98729.34;;;5.13;100.00
54872;BME280;43914;57.680;11.982;2023-02-20T05:50:15;98726.10;;;5.14;100.00
54872;BME280;43914;57.680;11.982;2023-02-20T05:52:41;98727.94;;;5.17;100.00
54872;BME280;43914;57.680;11.982;2023-02-20T05:55:07;98714.30;;;5.18;100.00
54872;BME280;43914;57.680;11.982;2023-02-20T05:57:32;98710.28;;;5.20;100.00
54872;BME280;43914;57.680;11.982;2023-02-20T05:59:58;98716.22;;;5.21;100.00
54872;BME280;43914;57.680;11.982;2023-02-20T06:02:24;98717.34;;;5.24;100.00
54872;BME280;43914;57.680;11.982;2023-02-20T06:04:49;98710.98;;;5.26;100.00
54872;BME280;43914;57.680;11.982;2023-02-20T06:07:15;98715.78;;;5.27;100.00
54872;BME280;43914;57.680;11.982;2023-02-20T06:09:42;98696.41;;;5.29;100.00
54872;BME280;43914;57.680;11.982;2023-02-20T06:12:09;98694.08;;;5.30;100.00
54872;BME280;43914;57.680;11.982;2023-02-20T06:14:35;98684.41;;;5.31;100.00
54872;BME280;43914;57.680;11.982;2023-02-20T06:17:01;98673.52;;;5.33;100.00
54872;BME280;43914;57.680;11.982;2023-02-20T06:19:27;98680.98;;;5.34;100.00
54872;BME280;43914;57.680;11.982;2023-02-20T06:21:53;98677.54;;;5.36;100.00
54872;BME280;43914;57.680;11.982;2023-02-20T06:24:19;98681.14;;;5.38;100.00
54872;BME280;43914;57.680;11.982;2023-02-20T06:26:45;98667.91;;;5.40;100.00
54872;BME280;43914;57.680;11.982;2023-02-20T06:29:14;98664.23;;;5.41;100.00
54872;BME280;43914;57.680;11.982;2023-02-20T06:31:40;98670.61;;;5.44;100.00
54872;BME280;43914;57.680;11.982;2023-02-20T06:34:07;98665.77;;;5.46;100.00
54872;BME280;43914;57.680;11.982;2023-02-20T06:36:36;98664.94;;;5.48;100.00
54872;BME280;43914;57.680;11.982;2023-02-20T06:39:05;98656.98;;;5.51;100.00
54872;BME280;43914;57.680;11.982;2023-02-20T06:41:31;98639.90;;;5.51;100.00
54872;BME280;43914;57.680;11.982;2023-02-20T06:43:56;98644.00;;;5.52;100.00
54872;BME280;43914;57.680;11.982;2023-02-20T06:46:23;98644.13;;;5.54;100.00
54872;BME280;43914;57.680;11.982;2023-02-20T06:48:56;98648.06;;;5.55;100.00
54872;BME280;43914;57.680;11.982;2023-02-20T06:51:25;98643.67;;;5.56;100.00
54872;BME280;43914;57.680;11.982;2023-02-20T06:53:51;98637.45;;;5.58;100.00
54872;BME280;43914;57.680;11.982;2023-02-20T06:56:18;98645.55;;;5.58;100.00
54872;BME280;43914;57.680;11.982;2023-02-20T06:58:46;98618.05;;;5.59;100.00
54872;BME280;43914;57.680;11.982;2023-02-20T07:01:12;98631.38;;;5.59;100.00
54872;BME280;43914;57.680;11.982;2023-02-20T07:03:38;98633.79;;;5.60;100.00
54872;BME280;43914;57.680;11.982;2023-02-20T07:06:04;98607.96;;;5.60;100.00
54872;BME280;43914;57.680;11.982;2023-02-20T07:08:29;98608.89;;;5.61;100.00
54872;BME280;43914;57.680;11.982;2023-02-20T07:10:55;98598.91;;;5.61;100.00
54872;BME280;43914;57.680;11.982;2023-02-20T07:13:21;98594.41;;;5.63;100.00
54872;BME280;43914;57.680;11.982;2023-02-20T07:15:47;98598.95;;;5.64;100.00
54872;BME280;43914;57.680;11.982;2023-02-20T07:18:13;98591.70;;;5.65;100.00
54872;BME280;43914;57.680;11.982;2023-02-20T07:20:39;98592.55;;;5.67;100.00
54872;BME280;43914;57.680;11.982;2023-02-20T07:23:04;98596.48;;;5.68;100.00
54872;BME280;43914;57.680;11.982;2023-02-20T07:25:30;98590.98;;;5.69;100.00
54872;BME280;43914;57.680;11.982;2023-02-20T07:27:55;98598.00;;;5.70;100.00
54872;BME280;43914;57.680;11.982;2023-02-20T07:30:21;98592.30;;;5.71;100.00
54872;BME280;43914;57.680;11.982;2023-02-20T07:32:49;98588.73;;;5.72;100.00
54872;BME280;43914;57.680;11.982;2023-02-20T07:35:15;98603.77;;;5.74;100.00
54872;BME280;43914;57.680;11.982;2023-02-20T07:37:40;98585.48;;;5.74;100.00
54872;BME280;43914;57.680;11.982;2023-02-20T07:40:06;98584.17;;;5.76;100.00
54872;BME280;43914;57.680;11.982;2023-02-20T07:42:33;98589.23;;;5.78;100.00
54872;BME280;43914;57.680;11.982;2023-02-20T07:44:58;98586.48;;;5.79;100.00
54872;BME280;43914;57.680;11.982;2023-02-20T07:47:24;98573.48;;;5.81;100.00
54872;BME280;43914;57.680;11.982;2023-02-20T07:49:49;98573.15;;;5.82;100.00
54872;BME280;43914;57.680;11.982;2023-02-20T07:52:15;98578.85;;;5.83;100.00
54872;BME280;43914;57.680;11.982;2023-02-20T07:54:40;98584.66;;;5.83;100.00
54872;BME280;43914;57.680;11.982;2023-02-20T07:57:06;98573.18;;;5.84;100.00
54872;BME280;43914;57.680;11.982;2023-02-20T07:59:31;98576.02;;;5.86;100.00
54872;BME280;43914;57.680;11.982;2023-02-20T08:01:57;98576.42;;;5.86;100.00
54872;BME280;43914;57.680;11.982;2023-02-20T08:04:22;98584.13;;;5.87;100.00
54872;BME280;43914;57.680;11.982;2023-02-20T08:06:48;98588.59;;;5.87;100.00
54872;BME280;43914;57.680;11.982;2023-02-20T08:09:13;98596.77;;;5.87;100.00
54872;BME280;43914;57.680;11.982;2023-02-20T08:11:38;98600.41;;;5.88;100.00
54872;BME280;43914;57.680;11.982;2023-02-20T08:14:06;98601.73;;;5.88;100.00
54872;BME280;43914;57.680;11.982;2023-02-20T08:16:34;98612.88;;;5.89;100.00
54872;BME280;43914;57.680;11.982;2023-02-20T08:18:59;98607.91;;;5.90;100.00
54872;BME280;43914;57.680;11.982;2023-02-20T08:21:26;98593.35;;;5.91;100.00
54872;BME280;43914;57.680;11.982;2023-02-20T08:23:52;98578.20;;;5.93;100.00
54872;BME280;43914;57.680;11.982;2023-02-20T08:26:17;98580.23;;;5.94;100.00
54872;BME280;43914;57.680;11.982;2023-02-20T08:28:45;98576.40;;;5.94;100.00
54872;BME280;43914;57.680;11.982;2023-02-20T08:31:11;98560.20;;;5.99;100.00
54872;BME280;43914;57.680;11.982;2023-02-20T08:33:36;98562.66;;;5.99;100.00
54872;BME280;43914;57.680;11.982;2023-02-20T08:36:02;98554.25;;;5.99;100.00
54872;BME280;43914;57.680;11.982;2023-02-20T08:38:30;98558.68;;;6.00;100.00
54872;BME280;43914;57.680;11.982;2023-02-20T08:40:58;98537.90;;;6.02;100.00
54872;BME280;43914;57.680;11.982;2023-02-20T08:43:24;98522.42;;;6.03;100.00
54872;BME280;43914;57.680;11.982;2023-02-20T08:45:49;98535.92;;;6.05;100.00
54872;BME280;43914;57.680;11.982;2023-02-20T08:48:15;98543.27;;;6.07;100.00
54872;BME280;43914;57.680;11.982;2023-02-20T08:50:41;98554.75;;;6.08;100.00
54872;BME280;43914;57.680;11.982;2023-02-20T08:53:07;98563.90;;;6.07;100.00
54872;BME280;43914;57.680;11.982;2023-02-20T08:55:32;98539.25;;;6.05;100.00
54872;BME280;43914;57.680;11.982;2023-02-20T08:57:58;98547.13;;;6.05;100.00
54872;BME280;43914;57.680;11.982;2023-02-20T09:00:23;98542.33;;;6.02;100.00
54872;BME280;43914;57.680;11.982;2023-02-20T09:02:49;98546.25;;;6.00;100.00
54872;BME280;43914;57.680;11.982;2023-02-20T09:05:15;98527.18;;;6.00;100.00
54872;BME280;43914;57.680;11.982;2023-02-20T09:07:41;98532.80;;;5.99;100.00
54872;BME280;43914;57.680;11.982;2023-02-20T09:10:06;98531.73;;;5.99;100.00
54872;BME280;43914;57.680;11.982;2023-02-20T09:12:33;98547.73;;;5.99;100.00
54872;BME280;43914;57.680;11.982;2023-02-20T09:14:59;98544.37;;;5.97;100.00
54872;BME280;43914;57.680;11.982;2023-02-20T09:17:28;98537.23;;;5.98;100.00
54872;BME280;43914;57.680;11.982;2023-02-20T09:19:53;98540.67;;;5.97;100.00
54872;BME280;43914;57.680;11.982;2023-02-20T09:22:24;98533.14;;;5.94;100.00
54872;BME280;43914;57.680;11.982;2023-02-20T09:24:50;98537.73;;;5.90;100.00
54872;BME280;43914;57.680;11.982;2023-02-20T09:27:16;98531.84;;;5.85;100.00
54872;BME280;43914;57.680;11.982;2023-02-20T09:29:42;98522.35;;;5.78;100.00
54872;BME280;43914;57.680;11.982;2023-02-20T09:32:09;98525.86;;;5.75;100.00
54872;BME280;43914;57.680;11.982;2023-02-20T09:34:35;98530.83;;;5.72;100.00
54872;BME280;43914;57.680;11.982;2023-02-20T09:37:02;98541.42;;;5.70;100.00
54872;BME280;43914;57.680;11.982;2023-02-20T09:39:29;98539.86;;;5.69;100.00
54872;BME280;43914;57.680;11.982;2023-02-20T09:47:45;98568.65;;;5.69;100.00
54872;BME280;43914;57.680;11.982;2023-02-20T09:53:05;98574.30;;;5.70;100.00
54872;BME280;43914;57.680;11.982;2023-02-20T09:55:40;98585.53;;;5.74;100.00
54872;BME280;43914;57.680;11.982;2023-02-20T09:58:06;98574.84;;;5.78;100.00
54872;BME280;43914;57.680;11.982;2023-02-20T10:00:37;98568.96;;;5.82;100.00
54872;BME280;43914;57.680;11.982;2023-02-20T10:03:16;98557.36;;;5.86;100.00
54872;BME280;43914;57.680;11.982;2023-02-20T10:05:43;98557.71;;;5.86;100.00
54872;BME280;43914;57.680;11.982;2023-02-20T10:08:19;98568.25;;;5.89;100.00
54872;BME280;43914;57.680;11.982;2023-02-20T10:10:48;98566.86;;;5.93;100.00
54872;BME280;43914;57.680;11.982;2023-02-20T10:15:58;98559.63;;;5.99;100.00
54872;BME280;43914;57.680;11.982;2023-02-20T10:24:04;98576.71;;;6.09;100.00
54872;BME280;43914;57.680;11.982;2023-02-20T10:26:36;98581.14;;;6.11;100.00
54872;BME280;43914;57.680;11.982;2023-02-20T10:29:19;98573.27;;;6.14;100.00
54872;BME280;43914;57.680;11.982;2023-02-20T10:32:13;98581.33;;;6.15;100.00
54872;BME280;43914;57.680;11.982;2023-02-20T10:34:48;98569.78;;;6.17;100.00
54872;BME280;43914;57.680;11.982;2023-02-20T10:37:20;98571.31;;;6.22;100.00
54872;BME280;43914;57.680;11.982;2023-02-20T10:40:15;98564.27;;;6.23;100.00
54872;BME280;43914;57.680;11.982;2023-02-20T10:45:21;98586.55;;;6.28;100.00
54872;BME280;43914;57.680;11.982;2023-02-20T10:48:04;98597.34;;;6.28;100.00
54872;BME280;43914;57.680;11.982;2023-02-20T10:53:20;98598.75;;;6.33;100.00
54872;BME280;43914;57.680;11.982;2023-02-20T10:58:27;98586.21;;;6.38;100.00
54872;BME280;43914;57.680;11.982;2023-02-20T11:00:58;98581.17;;;6.38;100.00
54872;BME280;43914;57.680;11.982;2023-02-20T11:03:44;98601.48;;;6.42;100.00
54872;BME280;43914;57.680;11.982;2023-02-20T11:06:15;98603.87;;;6.43;100.00
54872;BME280;43914;57.680;11.982;2023-02-20T11:08:41;98607.52;;;6.45;100.00
54872;BME280;43914;57.680;11.982;2023-02-20T11:14:00;98616.08;;;6.47;100.00
54872;BME280;43914;57.680;11.982;2023-02-20T11:16:32;98618.63;;;6.47;100.00
54872;BME280;43914;57.680;11.982;2023-02-20T11:19:07;98616.44;;;6.49;100.00
54872;BME280;43914;57.680;11.982;2023-02-20T11:21:42;98616.75;;;6.51;100.00
54872;BME280;43914;57.680;11.982;2023-02-20T11:26:56;98637.58;;;6.50;100.00
54872;BME280;43914;57.680;11.982;2023-02-20T11:29:24;98630.91;;;6.57;100.00
54872;BME280;43914;57.680;11.982;2023-02-20T11:31:51;98619.98;;;6.61;100.00
54872;BME280;43914;57.680;11.982;2023-02-20T11:34:24;98623.04;;;6.63;100.00
54872;BME280;43914;57.680;11.982;2023-02-20T11:36:55;98614.54;;;6.64;100.00
54872;BME280;43914;57.680;11.982;2023-02-20T11:39:28;98611.62;;;6.64;100.00
54872;BME280;43914;57.680;11.982;2023-02-20T11:42:14;98615.31;;;6.65;100.00
54872;BME280;43914;57.680;11.982;2023-02-20T11:44:41;98605.05;;;6.64;100.00
54872;BME280;43914;57.680;11.982;2023-02-20T11:50:12;98583.70;;;6.66;100.00
54872;BME280;43914;57.680;11.982;2023-02-20T11:52:57;98551.56;;;6.61;100.00
54872;BME280;43914;57.680;11.982;2023-02-20T11:55:25;98548.23;;;6.62;100.00
54872;BME280;43914;57.680;11.982;2023-02-20T11:57:51;98561.54;;;6.61;100.00
54872;BME280;43914;57.680;11.982;2023-02-20T12:00:20;98594.02;;;6.62;100.00
54872;BME280;43914;57.680;11.982;2023-02-20T12:03:03;98607.90;;;6.62;100.00
54872;BME280;43914;57.680;11.982;2023-02-20T12:05:38;98602.35;;;6.63;100.00
54872;BME280;43914;57.680;11.982;2023-02-20T12:10:55;98630.80;;;6.65;100.00
54872;BME280;43914;57.680;11.982;2023-02-20T12:13:24;98632.18;;;6.67;100.00
54872;BME280;43914;57.680;11.982;2023-02-20T12:16:03;98631.09;;;6.64;100.00
54872;BME280;43914;57.680;11.982;2023-02-20T12:26:56;98661.33;;;6.72;100.00
54872;BME280;43914;57.680;11.982;2023-02-20T12:40:32;98664.73;;;6.69;100.00
54872;BME280;43914;57.680;11.982;2023-02-20T12:43:28;98643.52;;;6.68;100.00
54872;BME280;43914;57.680;11.982;2023-02-20T12:46:35;98636.81;;;6.70;100.00
54872;BME280;43914;57.680;11.982;2023-02-20T12:57:47;98652.27;;;6.64;100.00
54872;BME280;43914;57.680;11.982;2023-02-20T13:00:24;98653.94;;;6.59;100.00
54872;BME280;43914;57.680;11.982;2023-02-20T13:03:02;98660.86;;;6.62;100.00
54872;BME280;43914;57.680;11.982;2023-02-20T13:05:32;98664.83;;;6.61;100.00
54872;BME280;43914;57.680;11.982;2023-02-20T13:08:06;98667.86;;;6.59;100.00
54872;BME280;43914;57.680;11.982;2023-02-20T13:11:18;98685.72;;;6.60;100.00
54872;BME280;43914;57.680;11.982;2023-02-20T13:13:26;98690.55;;;6.62;100.00
54872;BME280;43914;57.680;11.982;2023-02-20T13:16:21;98698.92;;;6.63;100.00
54872;BME280;43914;57.680;11.982;2023-02-20T13:21:23;98701.74;;;6.68;100.00
54872;BME280;43914;57.680;11.982;2023-02-20T13:23:50;98689.79;;;6.71;100.00
54872;BME280;43914;57.680;11.982;2023-02-20T13:29:15;98685.77;;;6.70;100.00
54872;BME280;43914;57.680;11.982;2023-02-20T13:55:19;98675.79;;;6.61;100.00
54872;BME280;43914;57.680;11.982;2023-02-20T13:57:52;98681.03;;;6.58;100.00
54872;BME280;43914;57.680;11.982;2023-02-20T14:00:27;98686.20;;;6.57;100.00
54872;BME280;43914;57.680;11.982;2023-02-20T14:02:54;98678.91;;;6.56;100.00
54872;BME280;43914;57.680;11.982;2023-02-20T14:05:31;98682.85;;;6.57;100.00
54872;BME280;43914;57.680;11.982;2023-02-20T14:07:57;98685.31;;;6.55;100.00
54872;BME280;43914;57.680;11.982;2023-02-20T14:13:00;98693.66;;;6.54;100.00
54872;BME280;43914;57.680;11.982;2023-02-20T14:15:27;98701.70;;;6.53;100.00
54872;BME280;43914;57.680;11.982;2023-02-20T14:17:55;98704.79;;;6.51;100.00
54872;BME280;43914;57.680;11.982;2023-02-20T14:20:30;98717.07;;;6.48;100.00
54872;BME280;43914;57.680;11.982;2023-02-20T14:25:38;98712.70;;;6.41;100.00
54872;BME280;43914;57.680;11.982;2023-02-20T14:28:10;98715.02;;;6.39;100.00
54872;BME280;43914;57.680;11.982;2023-02-20T14:30:36;98717.28;;;6.38;100.00
54872;BME280;43914;57.680;11.982;2023-02-20T14:33:02;98724.42;;;6.37;100.00
54872;BME280;43914;57.680;11.982;2023-02-20T14:35:54;98727.14;;;6.36;100.00
54872;BME280;43914;57.680;11.982;2023-02-20T14:40:59;98746.77;;;6.32;100.00
54872;BME280;43914;57.680;11.982;2023-02-20T14:43:34;98750.75;;;6.30;100.00
54872;BME280;43914;57.680;11.982;2023-02-20T14:46:02;98759.45;;;6.30;100.00
54872;BME280;43914;57.680;11.982;2023-02-20T14:48:34;98763.02;;;6.29;100.00
54872;BME280;43914;57.680;11.982;2023-02-20T14:53:35;98768.52;;;6.26;100.00
54872;BME280;43914;57.680;11.982;2023-02-20T14:56:10;98780.50;;;6.24;100.00
54872;BME280;43914;57.680;11.982;2023-02-20T14:58:36;98772.58;;;6.24;100.00
54872;BME280;43914;57.680;11.982;2023-02-20T15:01:37;98775.95;;;6.21;100.00
54872;BME280;43914;57.680;11.982;2023-02-20T15:04:09;98769.61;;;6.16;100.00
54872;BME280;43914;57.680;11.982;2023-02-20T15:06:37;98772.16;;;6.13;100.00
54872;BME280;43914;57.680;11.982;2023-02-20T15:09:05;98772.74;;;6.10;100.00
54872;BME280;43914;57.680;11.982;2023-02-20T15:11:31;98768.46;;;6.08;100.00
54872;BME280;43914;57.680;11.982;2023-02-20T15:13:58;98774.25;;;6.07;100.00
54872;BME280;43914;57.680;11.982;2023-02-20T15:16:29;98781.49;;;6.04;100.00